createdAt,value
2018-02-21T00:01:32.011Z,31.90
2018-02-21T00:03:59.466Z,31.92
2018-02-21T00:06:26.826Z,31.99
2018-02-21T00:08:54.189Z,32.06
2018-02-21T00:11:21.581Z,31.98
2018-02-21T00:13:49.283Z,31.93
2018-02-21T00:16:16.705Z,31.97
2018-02-21T00:18:44.106Z,31.99
2018-02-21T00:21:11.594Z,32.13
2018-02-21T00:23:39.533Z,32.00
2018-02-21T00:26:07.147Z,31.92
2018-02-21T00:28:34.617Z,31.95
2018-02-21T00:31:02.074Z,32.04
2018-02-21T00:33:29.493Z,32.06
2018-02-21T00:35:56.903Z,31.95
2018-02-21T00:38:24.252Z,31.87
2018-02-21T00:40:51.720Z,31.92
2018-02-21T00:43:19.094Z,31.96
2018-02-21T00:45:46.483Z,32.09
2018-02-21T00:48:14.056Z,31.92
2018-02-21T00:50:41.559Z,31.95
2018-02-21T00:53:09.488Z,32.00
2018-02-21T00:55:36.863Z,32.12
2018-02-21T00:58:04.311Z,32.11
2018-02-21T01:00:31.694Z,32.00
2018-02-21T01:02:59.083Z,32.02
2018-02-21T01:05:26.474Z,31.99
2018-02-21T01:07:53.818Z,32.02
2018-02-21T01:10:21.208Z,32.04
2018-02-21T01:12:49.000Z,31.99
2018-02-21T01:15:16.407Z,32.11
2018-02-21T01:17:44.595Z,31.99
2018-02-21T01:20:12.345Z,32.08
2018-02-21T01:22:39.789Z,32.08
2018-02-21T01:25:08.226Z,32.02
2018-02-21T01:27:35.590Z,31.95
2018-02-21T01:30:04.268Z,32.05
2018-02-21T01:32:31.659Z,32.09
2018-02-21T01:34:59.432Z,32.11
2018-02-21T01:37:27.056Z,32.08
2018-02-21T01:39:54.534Z,32.05
2018-02-21T01:42:21.969Z,31.91
2018-02-21T01:44:49.385Z,32.14
2018-02-21T01:47:16.970Z,32.12
2018-02-21T01:49:44.311Z,32.04
2018-02-21T01:52:11.713Z,32.08
2018-02-21T01:54:39.206Z,32.05
2018-02-21T01:57:06.602Z,32.19
2018-02-21T01:59:34.032Z,32.15
2018-02-21T02:02:01.390Z,31.94
2018-02-21T02:04:28.751Z,31.44
2018-02-21T02:06:56.602Z,31.89
2018-02-21T02:09:23.943Z,31.96
2018-02-21T02:11:51.623Z,31.89
2018-02-21T02:14:19.009Z,31.91
2018-02-21T02:16:46.599Z,31.97
2018-02-21T02:19:13.969Z,32.06
2018-02-21T02:21:41.518Z,31.95
2018-02-21T02:24:08.945Z,32.00
2018-02-21T02:26:36.538Z,31.91
2018-02-21T02:29:03.945Z,31.73
2018-02-21T02:31:31.355Z,31.74
2018-02-21T02:33:58.883Z,31.70
2018-02-21T02:36:26.403Z,31.68
2018-02-21T02:38:53.830Z,31.75
2018-02-21T02:41:21.414Z,31.70
2018-02-21T02:43:48.777Z,31.58
2018-02-21T02:46:16.136Z,31.55
2018-02-21T02:48:43.558Z,31.59
2018-02-21T02:51:10.925Z,31.49
2018-02-21T02:53:38.288Z,31.52
2018-02-21T02:56:06.826Z,31.44
2018-02-21T02:58:34.202Z,31.26
2018-02-21T03:01:01.550Z,31.32
2018-02-21T03:03:28.928Z,31.16
2018-02-21T03:05:56.329Z,31.23
2018-02-21T03:08:23.780Z,31.27
2018-02-21T03:10:51.471Z,31.29
2018-02-21T03:13:18.822Z,31.04
2018-02-21T03:15:46.218Z,31.15
2018-02-21T03:18:13.578Z,31.21
2018-02-21T03:20:40.994Z,31.18
2018-02-21T03:23:08.580Z,31.03
2018-02-21T03:25:36.212Z,31.17
2018-02-21T03:28:03.650Z,31.07
2018-02-21T03:30:31.173Z,31.14
2018-02-21T03:32:58.537Z,30.97
2018-02-21T03:35:25.901Z,31.03
2018-02-21T03:37:53.263Z,31.11
2018-02-21T03:40:20.627Z,31.03
2018-02-21T03:42:48.170Z,31.00
2018-02-21T03:45:15.596Z,31.05
2018-02-21T03:47:42.981Z,31.11
2018-02-21T03:50:10.478Z,31.07
2018-02-21T03:52:38.089Z,31.01
2018-02-21T03:55:05.457Z,30.97
2018-02-21T03:57:34.091Z,30.91
2018-02-21T04:00:01.503Z,30.93
2018-02-21T04:02:28.855Z,30.83
2018-02-21T04:04:56.299Z,30.97
2018-02-21T04:07:23.654Z,30.88
2018-02-21T04:09:50.992Z,30.72
2018-02-21T04:12:18.754Z,30.67
2018-02-21T04:14:46.236Z,30.68
2018-02-21T04:17:13.631Z,30.61
2018-02-21T04:19:41.505Z,30.52
2018-02-21T04:22:09.008Z,30.52
2018-02-21T04:24:37.977Z,30.49
2018-02-21T04:27:05.453Z,30.40
2018-02-21T04:29:32.803Z,30.36
2018-02-21T04:32:00.429Z,30.34
2018-02-21T04:34:27.818Z,30.30
2018-02-21T04:36:55.615Z,30.12
2018-02-21T04:39:23.004Z,30.09
2018-02-21T04:41:50.898Z,30.21
2018-02-21T04:44:18.323Z,30.18
2018-02-21T04:46:45.831Z,30.06
2018-02-21T04:49:13.294Z,30.15
2018-02-21T04:51:40.746Z,29.97
2018-02-21T04:54:08.118Z,29.95
2018-02-21T04:56:35.587Z,29.99
2018-02-21T04:59:03.159Z,29.97
2018-02-21T05:01:30.529Z,29.80
2018-02-21T05:03:57.915Z,29.85
2018-02-21T05:06:25.266Z,29.76
2018-02-21T05:08:52.659Z,29.79
2018-02-21T05:11:20.296Z,29.73
2018-02-21T05:13:48.225Z,29.62
2018-02-21T05:16:15.631Z,29.75
2018-02-21T05:18:43.042Z,29.65
2018-02-21T05:21:11.244Z,29.60
2018-02-21T05:23:38.632Z,29.50
2018-02-21T05:26:08.155Z,29.57
2018-02-21T05:28:35.500Z,29.39
2018-02-21T05:31:02.854Z,29.27
2018-02-21T05:33:30.437Z,29.16
2018-02-21T05:35:58.065Z,29.30
2018-02-21T05:38:25.543Z,29.33
2018-02-21T05:40:53.080Z,29.25
2018-02-21T05:43:21.831Z,29.20
2018-02-21T05:45:49.231Z,29.13
2018-02-21T05:48:16.597Z,29.10
2018-02-21T05:50:44.986Z,29.06
2018-02-21T05:53:12.451Z,29.14
2018-02-21T05:55:39.942Z,29.10
2018-02-21T05:58:07.352Z,29.06
2018-02-21T06:00:34.799Z,29.11
2018-02-21T06:03:02.151Z,29.00
2018-02-21T06:05:30.893Z,28.93
2018-02-21T06:08:00.362Z,28.90
2018-02-21T06:10:27.913Z,28.89
2018-02-21T06:12:55.398Z,28.64
2018-02-21T06:15:22.883Z,28.92
2018-02-21T06:17:50.446Z,28.83
2018-02-21T06:20:19.923Z,28.89
2018-02-21T06:22:47.543Z,28.99
2018-02-21T06:25:15.122Z,29.26
2018-02-21T06:27:43.918Z,29.27
2018-02-21T06:30:11.677Z,29.41
2018-02-21T06:32:39.266Z,29.16
2018-02-21T06:35:07.096Z,29.07
2018-02-21T06:37:34.504Z,28.86
2018-02-21T06:40:01.925Z,29.19
2018-02-21T06:42:30.952Z,29.17
2018-02-21T06:45:00.082Z,29.69
2018-02-21T06:47:28.112Z,29.28
2018-02-21T06:49:55.906Z,28.98
2018-02-21T06:52:23.338Z,29.12
2018-02-21T06:54:50.969Z,28.89
2018-02-21T06:57:19.852Z,28.90
2018-02-21T06:59:47.298Z,28.89
2018-02-21T07:02:14.802Z,28.98
2018-02-21T07:04:42.238Z,29.15
2018-02-21T07:07:10.232Z,28.86
2018-02-21T07:09:37.689Z,29.00
2018-02-21T07:12:10.889Z,29.00
2018-02-21T07:14:38.362Z,28.82
2018-02-21T07:17:05.735Z,28.81
2018-02-21T07:19:33.162Z,28.71
2018-02-21T07:22:00.595Z,28.89
2018-02-21T07:24:28.043Z,28.62
2018-02-21T07:26:55.500Z,28.92
2018-02-21T07:29:22.975Z,28.77
2018-02-21T07:31:50.509Z,28.70
2018-02-21T07:34:17.935Z,28.85
2018-02-21T07:36:45.381Z,28.14
2018-02-21T07:39:13.008Z,28.51
2018-02-21T07:41:40.496Z,28.42
2018-02-21T07:44:07.879Z,28.57
2018-02-21T07:46:35.279Z,28.61
2018-02-21T07:49:02.784Z,29.13
2018-02-21T07:51:30.502Z,28.19
2018-02-21T07:54:00.063Z,28.37
2018-02-21T07:56:28.209Z,28.38
2018-02-21T07:59:21.940Z,28.44
2018-02-21T08:02:01.069Z,28.60
2018-02-21T08:04:30.203Z,28.05
2018-02-21T08:06:58.585Z,28.27
2018-02-21T08:12:24.519Z,28.33
2018-02-21T08:14:53.860Z,28.71
2018-02-21T08:17:25.963Z,27.61
2018-02-21T08:19:54.210Z,27.68
2018-02-21T08:22:26.528Z,27.87
2018-02-21T08:26:36.216Z,28.35
2018-02-21T08:29:04.689Z,28.96
2018-02-21T08:31:32.192Z,28.89
2018-02-21T08:33:59.815Z,28.80
2018-02-21T08:36:27.642Z,28.85
2018-02-21T08:38:55.596Z,28.55
2018-02-21T08:41:23.647Z,28.82
2018-02-21T08:43:51.525Z,28.68
2018-02-21T08:46:19.059Z,28.56
2018-02-21T08:48:46.572Z,28.68
2018-02-21T08:51:14.504Z,29.23
2018-02-21T08:53:42.149Z,28.86
2018-02-21T08:56:10.086Z,28.67
2018-02-21T08:58:38.509Z,28.62
2018-02-21T09:01:06.897Z,28.59
2018-02-21T09:03:34.974Z,28.79
2018-02-21T09:06:02.550Z,28.74
2018-02-21T09:08:30.459Z,28.53
2018-02-21T09:10:58.190Z,28.66
2018-02-21T09:13:26.007Z,28.46
2018-02-21T09:15:53.754Z,28.46
2018-02-21T09:18:21.971Z,28.82
2018-02-21T09:20:49.721Z,28.72
2018-02-21T09:23:18.224Z,28.70
2018-02-21T09:25:46.097Z,28.75
2018-02-21T09:28:14.026Z,28.71
2018-02-21T09:30:41.495Z,28.54
2018-02-21T09:33:09.352Z,29.37
2018-02-21T09:35:37.262Z,28.48
2018-02-21T09:38:04.984Z,28.47
2018-02-21T09:40:32.609Z,28.64
2018-02-21T09:43:00.378Z,28.55
2018-02-21T09:45:28.299Z,28.75
2018-02-21T09:47:55.942Z,29.41
2018-02-21T09:50:23.599Z,28.47
2018-02-21T09:52:51.224Z,28.78
2018-02-21T09:55:19.068Z,28.57
2018-02-21T09:57:46.914Z,28.47
2018-02-21T10:00:14.855Z,28.46
2018-02-21T10:02:42.677Z,28.14
2018-02-21T10:05:10.500Z,28.42
2018-02-21T10:07:38.169Z,28.35
2018-02-21T10:10:06.181Z,28.33
2018-02-21T10:12:34.631Z,28.34
2018-02-21T10:15:02.085Z,28.27
2018-02-21T10:17:29.537Z,27.76
2018-02-21T10:20:00.084Z,28.16
2018-02-21T10:22:27.992Z,27.84
2018-02-21T10:24:55.634Z,28.22
2018-02-21T10:27:23.071Z,28.17
2018-02-21T10:29:50.604Z,28.09
2018-02-21T10:32:18.362Z,27.75
2018-02-21T10:34:46.167Z,27.82
2018-02-21T10:37:14.128Z,28.00
2018-02-21T10:39:42.141Z,27.99
2018-02-21T10:42:10.075Z,27.94
2018-02-21T10:44:37.788Z,27.88
2018-02-21T10:47:05.427Z,28.02
2018-02-21T10:49:33.904Z,27.96
2018-02-21T10:52:01.598Z,27.91
2018-02-21T10:54:29.550Z,27.99
2018-02-21T10:56:57.780Z,27.91
2018-02-21T10:59:29.646Z,28.12
2018-02-21T11:01:57.447Z,28.08
2018-02-21T11:04:25.454Z,28.02
2018-02-21T11:06:53.174Z,27.99
2018-02-21T11:09:20.655Z,27.97
2018-02-21T11:11:48.781Z,27.91
2018-02-21T11:14:16.860Z,27.98
2018-02-21T11:16:44.786Z,28.09
2018-02-21T11:19:17.566Z,28.00
2018-02-21T11:21:45.425Z,28.13
2018-02-21T11:24:13.412Z,28.07
2018-02-21T11:26:41.927Z,28.33
2018-02-21T11:29:09.791Z,28.25
2018-02-21T11:31:37.344Z,28.43
2018-02-21T11:34:05.650Z,28.19
2018-02-21T11:36:33.838Z,28.36
2018-02-21T11:39:01.366Z,27.85
2018-02-21T11:41:28.811Z,28.28
2018-02-21T11:43:57.392Z,28.15
2018-02-21T11:46:25.538Z,28.24
2018-02-21T11:48:53.574Z,28.20
2018-02-21T11:51:21.645Z,28.12
2018-02-21T11:53:49.589Z,28.44
2018-02-21T11:56:17.200Z,29.44
2018-02-21T11:58:45.375Z,28.32
2018-02-21T12:01:13.676Z,28.44
2018-02-21T12:03:42.213Z,28.61
2018-02-21T12:06:10.113Z,28.45
2018-02-21T12:08:42.282Z,28.46
2018-02-21T12:11:10.216Z,28.36
2018-02-21T12:13:38.217Z,28.37
2018-02-21T12:16:05.989Z,28.35
2018-02-21T12:18:33.718Z,28.33
2018-02-21T12:21:01.269Z,28.36
2018-02-21T12:23:28.835Z,27.91
2018-02-21T12:25:56.758Z,28.53
2018-02-21T12:28:25.103Z,28.37
2018-02-21T12:31:00.997Z,28.29
2018-02-21T12:33:29.106Z,28.41
2018-02-21T12:35:57.137Z,28.32
2018-02-21T12:38:25.192Z,28.23
2018-02-21T12:40:53.464Z,28.41
2018-02-21T12:43:21.099Z,28.43
2018-02-21T12:45:51.582Z,28.52
2018-02-21T12:48:19.411Z,28.48
2018-02-21T12:50:47.518Z,28.35
2018-02-21T12:53:15.498Z,28.54
2018-02-21T12:55:43.242Z,28.30
2018-02-21T12:58:11.291Z,28.50
2018-02-21T13:00:39.304Z,28.56
2018-02-21T13:03:07.629Z,28.51
2018-02-21T13:05:35.744Z,28.64
2018-02-21T13:08:03.854Z,28.49
2018-02-21T13:10:31.846Z,28.76
2018-02-21T13:12:59.523Z,28.49
2018-02-21T13:15:27.599Z,28.44
2018-02-21T13:17:55.511Z,28.58
2018-02-21T13:20:23.574Z,28.48
2018-02-21T13:22:51.574Z,28.63
2018-02-21T13:25:19.161Z,28.47
2018-02-21T13:27:47.470Z,28.42
2018-02-21T13:30:16.187Z,28.70
2018-02-21T13:32:43.927Z,28.67
2018-02-21T13:35:11.340Z,28.81
2018-02-21T13:37:39.199Z,28.47
2018-02-21T13:40:07.201Z,28.43
2018-02-21T13:42:35.125Z,28.49
2018-02-21T13:45:03.909Z,28.39
2018-02-21T13:47:31.897Z,28.70
2018-02-21T13:49:59.351Z,28.91
2018-02-21T13:52:26.727Z,28.61
2018-02-21T13:54:54.129Z,28.54
2018-02-21T13:57:21.505Z,28.63
2018-02-21T13:59:48.900Z,28.59
2018-02-21T14:02:17.140Z,29.05
2018-02-21T14:04:44.835Z,28.97
2018-02-21T14:07:12.478Z,28.74
2018-02-21T14:09:40.289Z,29.24
2018-02-21T14:12:07.761Z,29.22
2018-02-21T14:14:35.214Z,28.89
2018-02-21T14:17:02.791Z,29.08
2018-02-21T14:19:30.235Z,28.93
2018-02-21T14:21:57.660Z,28.83
2018-02-21T14:24:25.088Z,28.99
2018-02-21T14:26:52.654Z,28.79
2018-02-21T14:29:21.015Z,29.16
2018-02-21T14:31:48.761Z,28.80
2018-02-21T14:34:16.267Z,28.99
2018-02-21T14:36:43.823Z,29.16
2018-02-21T14:39:11.210Z,29.20
2018-02-21T14:41:38.736Z,28.83
2018-02-21T14:44:06.207Z,28.86
2018-02-21T14:46:33.596Z,28.63
2018-02-21T14:49:00.972Z,28.72
2018-02-21T14:51:28.486Z,28.65
2018-02-21T14:53:55.953Z,28.75
2018-02-21T14:56:23.729Z,28.90
2018-02-21T14:58:51.742Z,28.70
2018-02-21T15:01:19.635Z,28.79
2018-02-21T15:03:47.408Z,28.63
2018-02-21T15:06:15.404Z,28.89
2018-02-21T15:08:43.001Z,28.69
2018-02-21T15:11:10.635Z,28.65
2018-02-21T15:13:39.155Z,28.67
2018-02-21T15:16:07.084Z,28.94
2018-02-21T15:18:35.268Z,28.86
2018-02-21T15:21:03.110Z,28.79
2018-02-21T15:23:30.780Z,28.90
2018-02-21T15:25:58.910Z,28.74
2018-02-21T15:28:26.541Z,28.75
2018-02-21T15:30:54.476Z,28.68
2018-02-21T15:33:22.343Z,28.63
2018-02-21T15:35:49.848Z,28.69
2018-02-21T15:38:18.816Z,28.81
2018-02-21T15:40:47.480Z,28.65
2018-02-21T15:43:15.187Z,28.99
2018-02-21T15:45:42.676Z,28.88
2018-02-21T15:48:10.613Z,28.65
2018-02-21T15:50:38.112Z,28.68
2018-02-21T15:53:07.384Z,28.86
2018-02-21T15:55:35.325Z,28.53
2018-02-21T15:58:02.978Z,28.38
2018-02-21T16:00:30.852Z,28.72
2018-02-21T16:02:58.241Z,28.42
2018-02-21T16:05:26.126Z,28.42
2018-02-21T16:10:56.617Z,28.23
2018-02-21T16:13:24.094Z,28.47
2018-02-21T16:15:51.549Z,28.46
2018-02-21T16:18:19.638Z,28.57
2018-02-21T16:20:47.112Z,28.26
2018-02-21T16:23:14.674Z,28.64
2018-02-21T16:25:42.079Z,28.45
2018-02-21T16:28:10.100Z,28.54
2018-02-21T16:30:37.779Z,28.47
2018-02-21T16:33:05.628Z,28.50
2018-02-21T16:35:34.396Z,28.50
2018-02-21T16:38:02.589Z,28.37
2018-02-21T16:40:29.982Z,28.27
2018-02-21T16:42:57.405Z,28.44
2018-02-21T16:45:24.806Z,28.26
2018-02-21T16:47:52.367Z,28.31
2018-02-21T16:50:19.881Z,28.30
2018-02-21T16:52:47.359Z,28.26
2018-02-21T16:55:14.741Z,28.48
2018-02-21T16:57:42.572Z,28.38
2018-02-21T17:00:09.979Z,28.17
2018-02-21T17:02:37.344Z,28.02
2018-02-21T17:05:05.088Z,28.08
2018-02-21T17:07:32.638Z,28.17
2018-02-21T17:10:00.135Z,28.16
2018-02-21T17:12:27.521Z,28.16
2018-02-21T17:14:55.004Z,28.10
2018-02-21T17:17:22.656Z,28.08
2018-02-21T17:19:50.161Z,28.22
2018-02-21T17:22:17.902Z,28.32
2018-02-21T17:24:45.257Z,28.07
2018-02-21T17:27:12.752Z,28.17
2018-02-21T17:29:40.582Z,28.11
2018-02-21T17:32:08.026Z,28.07
2018-02-21T17:34:35.530Z,28.12
2018-02-21T17:37:02.911Z,28.06
2018-02-21T17:39:30.254Z,27.97
2018-02-21T17:41:57.658Z,27.89
2018-02-21T17:44:25.002Z,28.08
2018-02-21T17:46:52.363Z,27.91
2018-02-21T17:49:19.951Z,28.18
2018-02-21T17:51:47.308Z,27.86
2018-02-21T17:54:14.726Z,27.85
2018-02-21T17:56:42.097Z,28.01
2018-02-21T17:59:09.601Z,28.03
2018-02-21T18:01:37.087Z,27.97
2018-02-21T18:04:04.498Z,27.99
2018-02-21T18:06:31.843Z,28.38
2018-02-21T18:08:59.195Z,28.47
2018-02-21T18:11:26.578Z,28.47
2018-02-21T18:13:54.123Z,28.33
2018-02-21T18:16:21.473Z,28.20
2018-02-21T18:18:48.813Z,28.36
2018-02-21T18:21:16.158Z,28.27
2018-02-21T18:23:43.511Z,28.27
2018-02-21T18:26:10.859Z,28.25
2018-02-21T18:28:38.210Z,28.20
2018-02-21T18:31:05.549Z,28.17
2018-02-21T18:33:32.983Z,28.23
2018-02-21T18:36:00.326Z,28.26
2018-02-21T18:38:27.718Z,28.26
2018-02-21T18:40:55.059Z,28.15
2018-02-21T18:43:22.474Z,28.10
2018-02-21T18:45:49.810Z,28.18
2018-02-21T18:48:17.153Z,28.15
2018-02-21T18:50:44.562Z,28.23
2018-02-21T18:53:11.942Z,28.19
2018-02-21T18:55:39.359Z,28.20
2018-02-21T18:58:06.764Z,28.09
2018-02-21T19:00:34.143Z,28.11
2018-02-21T19:03:01.490Z,28.20
2018-02-21T19:05:28.857Z,28.22
2018-02-21T19:07:56.210Z,28.29
2018-02-21T19:10:23.574Z,28.29
2018-02-21T19:12:51.032Z,28.23
2018-02-21T19:15:18.370Z,28.18
2018-02-21T19:17:45.731Z,28.21
2018-02-21T19:20:13.122Z,28.20
2018-02-21T19:22:40.553Z,28.21
2018-02-21T19:25:07.903Z,28.25
2018-02-21T19:27:35.306Z,28.22
2018-02-21T19:30:02.655Z,28.17
2018-02-21T19:32:29.994Z,28.20
2018-02-21T19:34:57.343Z,28.29
2018-02-21T19:37:24.710Z,28.26
2018-02-21T19:39:52.079Z,28.31
2018-02-21T19:42:19.430Z,28.24
2018-02-21T19:44:46.840Z,28.17
2018-02-21T19:47:14.204Z,28.25
2018-02-21T19:49:41.583Z,28.29
2018-02-21T19:52:09.116Z,28.32
2018-02-21T19:54:36.465Z,28.32
2018-02-21T19:57:03.870Z,28.33
2018-02-21T19:59:31.283Z,28.24
2018-02-21T20:01:58.631Z,28.20
2018-02-21T20:04:26.019Z,28.30
2018-02-21T20:06:53.571Z,28.29
2018-02-21T20:09:20.983Z,28.31
2018-02-21T20:11:48.445Z,28.31
2018-02-21T20:14:15.879Z,28.28
2018-02-21T20:16:43.302Z,28.33
2018-02-21T20:19:10.762Z,28.29
2018-02-21T20:21:38.148Z,28.35
2018-02-21T20:24:05.642Z,28.36
2018-02-21T20:26:33.243Z,28.38
2018-02-21T20:29:00.598Z,28.36
2018-02-21T20:31:28.049Z,28.38
2018-02-21T20:33:55.426Z,28.33
2018-02-21T20:36:22.765Z,28.31
2018-02-21T20:38:50.111Z,28.40
2018-02-21T20:41:17.506Z,28.40
2018-02-21T20:43:44.848Z,28.37
2018-02-21T20:46:12.316Z,28.31
2018-02-21T20:48:39.695Z,28.38
2018-02-21T20:51:07.035Z,28.42
2018-02-21T20:53:34.511Z,28.44
2018-02-21T20:56:01.850Z,28.44
2018-02-21T20:58:29.207Z,28.40
2018-02-21T21:00:56.646Z,28.45
2018-02-21T21:03:24.119Z,28.43
2018-02-21T21:05:51.458Z,28.49
2018-02-21T21:08:18.844Z,28.51
2018-02-21T21:10:46.208Z,28.51
2018-02-21T21:13:13.713Z,28.48
2018-02-21T21:15:41.056Z,28.56
2018-02-21T21:18:08.449Z,28.49
2018-02-21T21:20:35.925Z,28.82
2018-02-21T21:23:03.253Z,28.88
2018-02-21T21:25:30.671Z,29.00
2018-02-21T21:27:58.770Z,29.05
2018-02-21T21:30:26.166Z,29.18
2018-02-21T21:32:53.546Z,29.18
2018-02-21T21:35:20.879Z,29.29
2018-02-21T21:37:48.269Z,29.27
2018-02-21T21:40:15.672Z,29.34
2018-02-21T21:42:43.011Z,29.43
2018-02-21T21:45:10.472Z,29.70
2018-02-21T21:47:37.948Z,29.52
2018-02-21T21:50:05.410Z,29.61
2018-02-21T21:52:32.783Z,29.62
2018-02-21T21:55:00.307Z,29.84
2018-02-21T21:57:27.690Z,29.85
2018-02-21T21:59:55.044Z,30.02
2018-02-21T22:02:22.422Z,29.73
2018-02-21T22:04:49.882Z,29.84
2018-02-21T22:07:17.374Z,29.87
2018-02-21T22:09:44.765Z,29.96
2018-02-21T22:12:12.179Z,30.25
2018-02-21T22:14:39.716Z,30.06
2018-02-21T22:17:07.118Z,30.07
2018-02-21T22:19:34.558Z,30.12
2018-02-21T22:22:01.945Z,29.97
2018-02-21T22:24:29.358Z,30.10
2018-02-21T22:26:56.783Z,30.21
2018-02-21T22:29:24.171Z,30.13
2018-02-21T22:31:51.689Z,30.12
2018-02-21T22:34:19.024Z,30.28
2018-02-21T22:36:46.416Z,30.13
2018-02-21T22:39:13.796Z,30.25
2018-02-21T22:41:41.220Z,30.35
2018-02-21T22:44:08.782Z,30.21
2018-02-21T22:46:36.130Z,30.12
2018-02-21T22:49:03.755Z,30.25
2018-02-21T22:51:31.197Z,30.34
2018-02-21T22:53:58.598Z,30.44
2018-02-21T22:56:26.070Z,30.41
2018-02-21T22:58:53.426Z,30.31
2018-02-21T23:01:20.777Z,30.28
2018-02-21T23:03:48.203Z,30.37
2018-02-21T23:06:15.756Z,30.43
2018-02-21T23:08:43.178Z,30.50
2018-02-21T23:11:10.523Z,30.42
2018-02-21T23:13:38.201Z,30.45
2018-02-21T23:16:05.604Z,30.39
2018-02-21T23:18:33.040Z,30.40
2018-02-21T23:21:00.436Z,30.51
2018-02-21T23:23:29.083Z,30.59
2018-02-21T23:25:56.699Z,30.56
2018-02-21T23:28:24.507Z,30.54
2018-02-21T23:30:52.359Z,30.53
2018-02-21T23:33:19.962Z,30.46
2018-02-21T23:35:48.353Z,30.64
2018-02-21T23:38:16.268Z,30.87
2018-02-21T23:40:43.785Z,30.92
2018-02-21T23:43:11.298Z,30.55
2018-02-21T23:45:38.682Z,30.48
2018-02-21T23:48:06.209Z,30.59
2018-02-21T23:50:33.589Z,30.64
2018-02-21T23:53:01.192Z,30.67
2018-02-21T23:55:28.632Z,30.81
2018-02-21T23:57:55.969Z,30.56
